sensor_id;sensor_type;location;lat;lon;timestamp;pressure;altitude;pressure_sealevel;temperature;humidity
72921;BME280;61064;51.654;5.476;2022-07-31T00:00:05;101741.16;;;21.59;57.93
72921;BME280;61064;51.654;5.476;2022-07-31T00:02:31;101726.06;;;21.49;57.80
72921;BME280;61064;51.654;5.476;2022-07-31T00:04:57;101720.69;;;21.46;57.99
72921;BME280;61064;51.654;5.476;2022-07-31T00:07:22;101732.28;;;21.52;58.02
72921;BME280;61064;51.654;5.476;2022-07-31T00:09:47;101737.63;;;21.55;58.12
72921;BME280;61064;51.654;5.476;2022-07-31T00:12:13;101728.69;;;21.52;58.25
72921;BME280;61064;51.654;5.476;2022-07-31T00:14:38;101720.75;;;21.44;58.29
72921;BME280;61064;51.654;5.476;2022-07-31T00:17:04;101727.88;;;21.48;58.38
72921;BME280;61064;51.654;5.476;2022-07-31T00:19:29;101728.88;;;21.44;58.55
72921;BME280;61064;51.654;5.476;2022-07-31T00:21:54;101720.97;;;21.35;58.67
72921;BME280;61064;51.654;5.476;2022-07-31T00:24:20;101706.59;;;21.33;58.89
72921;BME280;61064;51.654;5.476;2022-07-31T00:26:46;101710.22;;;21.32;59.02
72921;BME280;61064;51.654;5.476;2022-07-31T00:29:11;101709.22;;;21.36;58.73
72921;BME280;61064;51.654;5.476;2022-07-31T00:31:37;101716.38;;;21.39;58.95
72921;BME280;61064;51.654;5.476;2022-07-31T00:34:02;101726.19;;;21.44;59.22
72921;BME280;61064;51.654;5.476;2022-07-31T00:36:28;101710.97;;;21.39;59.28
72921;BME280;61064;51.654;5.476;2022-07-31T00:38:53;101704.69;;;21.37;59.36
72921;BME280;61064;51.654;5.476;2022-07-31T00:41:19;101727.25;;;21.37;59.50
72921;BME280;61064;51.654;5.476;2022-07-31T00:43:45;101721.94;;;21.33;59.61
72921;BME280;61064;51.654;5.476;2022-07-31T00:46:10;101720.34;;;21.24;59.72
72921;BME280;61064;51.654;5.476;2022-07-31T00:48:36;101714.84;;;21.29;59.69
72921;BME280;61064;51.654;5.476;2022-07-31T00:51:01;101695.19;;;21.19;59.76
72921;BME280;61064;51.654;5.476;2022-07-31T00:53:27;101713.19;;;21.22;59.86
72921;BME280;61064;51.654;5.476;2022-07-31T00:55:52;101716.78;;;21.22;60.08
72921;BME280;61064;51.654;5.476;2022-07-31T00:58:19;101698.91;;;21.13;60.06
72921;BME280;61064;51.654;5.476;2022-07-31T01:00:44;101707.03;;;21.15;60.02
72921;BME280;61064;51.654;5.476;2022-07-31T01:03:10;101698.06;;;21.11;60.16
72921;BME280;61064;51.654;5.476;2022-07-31T01:05:35;101705.28;;;21.11;60.20
72921;BME280;61064;51.654;5.476;2022-07-31T01:08:00;101690.16;;;21.02;60.17
72921;BME280;61064;51.654;5.476;2022-07-31T01:10:40;101697.31;;;21.05;60.21
72921;BME280;61064;51.654;5.476;2022-07-31T01:13:13;101700.91;;;21.05;60.22
72921;BME280;61064;51.654;5.476;2022-07-31T01:15:41;101695.63;;;20.99;60.57
72921;BME280;61064;51.654;5.476;2022-07-31T01:18:09;101703.81;;;20.96;60.57
72921;BME280;61064;51.654;5.476;2022-07-31T01:20:36;101702.91;;;20.96;60.55
72921;BME280;61064;51.654;5.476;2022-07-31T01:31:24;101690.63;;;20.83;60.70
72921;BME280;61064;51.654;5.476;2022-07-31T01:37:01;101689.94;;;20.73;60.43
72921;BME280;61064;51.654;5.476;2022-07-31T01:39:31;101693.50;;;20.73;60.70
72921;BME280;61064;51.654;5.476;2022-07-31T01:41:58;101700.75;;;20.73;60.79
72921;BME280;61064;51.654;5.476;2022-07-31T01:44:26;101707.97;;;20.72;60.82
72921;BME280;61064;51.654;5.476;2022-07-31T01:46:55;101698.13;;;20.68;61.05
72921;BME280;61064;51.654;5.476;2022-07-31T01:49:24;101697.28;;;20.66;61.12
72921;BME280;61064;51.654;5.476;2022-07-31T01:51:51;101701.72;;;20.69;60.83
72921;BME280;61064;51.654;5.476;2022-07-31T01:54:17;101669.72;;;20.49;60.87
72921;BME280;61064;51.654;5.476;2022-07-31T01:56:45;101687.56;;;20.56;60.78
72921;BME280;61064;51.654;5.476;2022-07-31T01:59:13;101692.19;;;20.51;60.88
72921;BME280;61064;51.654;5.476;2022-07-31T02:01:41;101697.59;;;20.51;60.74
72921;BME280;61064;51.654;5.476;2022-07-31T02:04:08;101700.41;;;20.47;61.02
72921;BME280;61064;51.654;5.476;2022-07-31T02:06:34;101712.97;;;20.49;60.92
72921;BME280;61064;51.654;5.476;2022-07-31T02:09:01;101702.31;;;20.42;61.09
72921;BME280;61064;51.654;5.476;2022-07-31T02:11:27;101685.41;;;20.32;61.00
72921;BME280;61064;51.654;5.476;2022-07-31T02:13:53;101709.53;;;20.41;61.09
72921;BME280;61064;51.654;5.476;2022-07-31T02:16:19;101698.91;;;20.30;61.24
72921;BME280;61064;51.654;5.476;2022-07-31T02:18:47;101666.78;;;20.15;61.15
72921;BME280;61064;51.654;5.476;2022-07-31T02:21:13;101684.59;;;20.25;61.31
72921;BME280;61064;51.654;5.476;2022-07-31T02:23:39;101667.59;;;20.19;61.22
72921;BME280;61064;51.654;5.476;2022-07-31T02:26:05;101698.91;;;20.30;61.32
72921;BME280;61064;51.654;5.476;2022-07-31T02:28:34;101660.38;;;20.19;61.34
72921;BME280;61064;51.654;5.476;2022-07-31T02:31:01;101687.19;;;20.30;61.39
72921;BME280;61064;51.654;5.476;2022-07-31T02:33:27;101679.19;;;20.24;61.18
72921;BME280;61064;51.654;5.476;2022-07-31T02:35:54;101693.59;;;20.26;61.21
72921;BME280;61064;51.654;5.476;2022-07-31T02:38:22;101700.78;;;20.27;61.26
72921;BME280;61064;51.654;5.476;2022-07-31T02:40:53;101706.13;;;20.28;61.19
72921;BME280;61064;51.654;5.476;2022-07-31T02:43:19;101701.66;;;20.27;61.28
72921;BME280;61064;51.654;5.476;2022-07-31T02:45:48;101699.00;;;20.26;61.21
72921;BME280;61064;51.654;5.476;2022-07-31T02:48:14;101697.22;;;20.23;61.14
72921;BME280;61064;51.654;5.476;2022-07-31T02:50:40;101691.09;;;20.15;61.21
72921;BME280;61064;51.654;5.476;2022-07-31T02:53:06;101681.31;;;20.10;61.11
72921;BME280;61064;51.654;5.476;2022-07-31T02:55:32;101690.25;;;20.12;61.33
72921;BME280;61064;51.654;5.476;2022-07-31T02:57:58;101687.72;;;20.04;61.48
72921;BME280;61064;51.654;5.476;2022-07-31T03:00:24;101684.13;;;20.02;61.49
72921;BME280;61064;51.654;5.476;2022-07-31T03:02:54;101678.91;;;19.95;61.66
72921;BME280;61064;51.654;5.476;2022-07-31T03:05:20;101674.47;;;19.90;62.00
72921;BME280;61064;51.654;5.476;2022-07-31T03:07:46;101679.94;;;19.87;62.16
72921;BME280;61064;51.654;5.476;2022-07-31T03:10:12;101678.22;;;19.82;62.25
72921;BME280;61064;51.654;5.476;2022-07-31T03:12:46;101675.63;;;19.77;62.47
72921;BME280;61064;51.654;5.476;2022-07-31T03:15:20;101662.31;;;19.67;62.86
72921;BME280;61064;51.654;5.476;2022-07-31T03:17:48;101649.75;;;19.64;63.02
72921;BME280;61064;51.654;5.476;2022-07-31T03:20:14;101664.06;;;19.69;63.19
72921;BME280;61064;51.654;5.476;2022-07-31T03:22:41;101656.06;;;19.63;63.37
72921;BME280;61064;51.654;5.476;2022-07-31T03:25:07;101648.06;;;19.59;63.71
72921;BME280;61064;51.654;5.476;2022-07-31T03:27:32;101655.22;;;19.61;63.73
72921;BME280;61064;51.654;5.476;2022-07-31T03:29:58;101661.44;;;19.66;63.89
72921;BME280;61064;51.654;5.476;2022-07-31T03:32:26;101641.84;;;19.54;64.00
72921;BME280;61064;51.654;5.476;2022-07-31T03:34:52;101668.66;;;19.64;64.15
72921;BME280;61064;51.654;5.476;2022-07-31T03:37:17;101644.47;;;19.58;64.28
72921;BME280;61064;51.654;5.476;2022-07-31T03:39:42;101636.53;;;19.49;64.35
72921;BME280;61064;51.654;5.476;2022-07-31T03:42:08;101643.75;;;19.48;64.46
72921;BME280;61064;51.654;5.476;2022-07-31T03:44:35;101658.84;;;19.59;64.73
72921;BME280;61064;51.654;5.476;2022-07-31T03:47:01;101660.63;;;19.60;64.92
72921;BME280;61064;51.654;5.476;2022-07-31T03:49:28;101653.53;;;19.54;64.78
72921;BME280;61064;51.654;5.476;2022-07-31T03:51:54;101635.63;;;19.50;65.20
72921;BME280;61064;51.654;5.476;2022-07-31T03:54:20;101646.25;;;19.58;65.03
72921;BME280;61064;51.654;5.476;2022-07-31T03:56:47;101652.56;;;19.58;65.09
72921;BME280;61064;51.654;5.476;2022-07-31T03:59:14;101657.88;;;19.63;65.30
72921;BME280;61064;51.654;5.476;2022-07-31T04:01:40;101658.78;;;19.62;65.40
72921;BME280;61064;51.654;5.476;2022-07-31T04:04:06;101666.06;;;19.58;65.47
72921;BME280;61064;51.654;5.476;2022-07-31T04:06:31;101665.22;;;19.55;65.52
72921;BME280;61064;51.654;5.476;2022-07-31T04:08:57;101666.25;;;19.46;65.70
72921;BME280;61064;51.654;5.476;2022-07-31T04:11:22;101677.03;;;19.49;65.80
72921;BME280;61064;51.654;5.476;2022-07-31T04:13:47;101662.72;;;19.41;65.95
72921;BME280;61064;51.654;5.476;2022-07-31T04:16:13;101662.72;;;19.41;66.13
72921;BME280;61064;51.654;5.476;2022-07-31T04:18:38;101669.00;;;19.41;66.18
72921;BME280;61064;51.654;5.476;2022-07-31T04:21:04;101669.09;;;19.37;66.40
72921;BME280;61064;51.654;5.476;2022-07-31T04:23:29;101659.31;;;19.30;66.31
72921;BME280;61064;51.654;5.476;2022-07-31T04:25:54;101667.38;;;19.31;66.22
72921;BME280;61064;51.654;5.476;2022-07-31T04:28:20;101680.88;;;19.33;66.25
72921;BME280;61064;51.654;5.476;2022-07-31T04:30:45;101670.03;;;19.34;66.51
72921;BME280;61064;51.654;5.476;2022-07-31T04:33:10;101672.72;;;19.34;66.36
72921;BME280;61064;51.654;5.476;2022-07-31T04:35:36;101683.59;;;19.30;66.38
72921;BME280;61064;51.654;5.476;2022-07-31T04:38:03;101679.91;;;19.34;66.49
72921;BME280;61064;51.654;5.476;2022-07-31T04:40:28;101669.22;;;19.29;66.58
72921;BME280;61064;51.654;5.476;2022-07-31T04:42:54;101680.88;;;19.33;66.67
72921;BME280;61064;51.654;5.476;2022-07-31T04:45:19;101680.91;;;19.30;66.63
72921;BME280;61064;51.654;5.476;2022-07-31T04:47:45;101658.59;;;19.19;66.55
72921;BME280;61064;51.654;5.476;2022-07-31T04:50:10;101679.09;;;19.29;66.80
72921;BME280;61064;51.654;5.476;2022-07-31T04:52:36;101671.09;;;19.23;66.89
72921;BME280;61064;51.654;5.476;2022-07-31T04:55:01;101672.88;;;19.25;66.86
72921;BME280;61064;51.654;5.476;2022-07-31T04:57:27;101665.84;;;19.17;66.94
72921;BME280;61064;51.654;5.476;2022-07-31T04:59:52;101684.59;;;19.24;66.87
72921;BME280;61064;51.654;5.476;2022-07-31T05:02:17;101660.47;;;19.15;66.87
72921;BME280;61064;51.654;5.476;2022-07-31T05:04:43;101664.88;;;19.19;67.04
72921;BME280;61064;51.654;5.476;2022-07-31T05:07:08;101670.28;;;19.18;67.06
72921;BME280;61064;51.654;5.476;2022-07-31T05:09:34;101658.59;;;19.17;67.16
72921;BME280;61064;51.654;5.476;2022-07-31T05:11:59;101663.16;;;19.14;67.55
72921;BME280;61064;51.654;5.476;2022-07-31T05:14:25;101667.66;;;19.13;67.87
72921;BME280;61064;51.654;5.476;2022-07-31T05:16:51;101659.66;;;19.08;68.12
72921;BME280;61064;51.654;5.476;2022-07-31T05:19:16;101662.44;;;19.04;68.37
72921;BME280;61064;51.654;5.476;2022-07-31T05:21:43;101659.72;;;19.04;68.90
72921;BME280;61064;51.654;5.476;2022-07-31T05:24:09;101649.06;;;18.96;68.94
72921;BME280;61064;51.654;5.476;2022-07-31T05:26:34;101657.13;;;18.98;69.24
72921;BME280;61064;51.654;5.476;2022-07-31T05:28:59;101657.22;;;18.93;69.38
72921;BME280;61064;51.654;5.476;2022-07-31T05:31:26;101659.00;;;18.94;69.56
72921;BME280;61064;51.654;5.476;2022-07-31T05:33:52;101647.31;;;18.92;69.70
72921;BME280;61064;51.654;5.476;2022-07-31T05:36:18;101640.22;;;18.87;70.00
72921;BME280;61064;51.654;5.476;2022-07-31T05:38:43;101642.84;;;18.91;70.12
72921;BME280;61064;51.654;5.476;2022-07-31T05:41:09;101645.56;;;18.90;70.33
72921;BME280;61064;51.654;5.476;2022-07-31T05:43:35;101638.50;;;18.81;70.28
72921;BME280;61064;51.654;5.476;2022-07-31T05:46:01;101664.38;;;18.94;70.31
72921;BME280;61064;51.654;5.476;2022-07-31T05:48:27;101653.63;;;18.90;70.51
72921;BME280;61064;51.654;5.476;2022-07-31T05:50:52;101642.09;;;18.82;70.50
72921;BME280;61064;51.654;5.476;2022-07-31T05:53:18;101655.44;;;18.91;70.81
72921;BME280;61064;51.654;5.476;2022-07-31T05:55:46;101655.50;;;18.86;70.83
72921;BME280;61064;51.654;5.476;2022-07-31T05:58:14;101653.69;;;18.87;70.96
72921;BME280;61064;51.654;5.476;2022-07-31T06:00:41;101659.94;;;18.90;71.19
72921;BME280;61064;51.654;5.476;2022-07-31T06:03:07;101661.72;;;18.90;71.30
72921;BME280;61064;51.654;5.476;2022-07-31T06:05:33;101659.97;;;18.89;71.46
72921;BME280;61064;51.654;5.476;2022-07-31T06:07:59;101660.81;;;18.92;71.38
72921;BME280;61064;51.654;5.476;2022-07-31T06:10:25;101661.69;;;18.94;71.23
72921;BME280;61064;51.654;5.476;2022-07-31T06:12:51;101659.84;;;18.95;71.35
72921;BME280;61064;51.654;5.476;2022-07-31T06:15:16;101662.53;;;18.98;71.56
72921;BME280;61064;51.654;5.476;2022-07-31T06:17:42;101659.81;;;18.99;71.52
72921;BME280;61064;51.654;5.476;2022-07-31T06:20:09;101665.13;;;19.05;71.57
72921;BME280;61064;51.654;5.476;2022-07-31T06:22:35;101664.16;;;19.06;71.88
72921;BME280;61064;51.654;5.476;2022-07-31T06:25:00;101653.44;;;19.05;71.68
72921;BME280;61064;51.654;5.476;2022-07-31T06:27:26;101654.16;;;19.15;71.84
72921;BME280;61064;51.654;5.476;2022-07-31T06:29:51;101660.41;;;19.18;71.84
72921;BME280;61064;51.654;5.476;2022-07-31T06:32:17;101656.78;;;19.21;71.88
72921;BME280;61064;51.654;5.476;2022-07-31T06:34:44;101650.38;;;19.28;71.81
72921;BME280;61064;51.654;5.476;2022-07-31T06:37:09;101633.28;;;19.27;71.86
72921;BME280;61064;51.654;5.476;2022-07-31T06:39:34;101636.78;;;19.32;71.93
72921;BME280;61064;51.654;5.476;2022-07-31T06:42:00;101636.75;;;19.34;71.83
72921;BME280;61064;51.654;5.476;2022-07-31T06:44:25;101647.38;;;19.44;71.78
72921;BME280;61064;51.654;5.476;2022-07-31T06:46:50;101641.06;;;19.47;71.77
72921;BME280;61064;51.654;5.476;2022-07-31T06:49:17;101639.19;;;19.50;71.77
72921;BME280;61064;51.654;5.476;2022-07-31T06:51:42;101642.75;;;19.52;71.82
72921;BME280;61064;51.654;5.476;2022-07-31T06:54:09;101656.13;;;19.60;71.90
72921;BME280;61064;51.654;5.476;2022-07-31T06:56:36;101654.25;;;19.64;71.73
72921;BME280;61064;51.654;5.476;2022-07-31T06:59:02;101661.44;;;19.65;71.81
72921;BME280;61064;51.654;5.476;2022-07-31T07:01:28;101655.97;;;19.68;71.87
72921;BME280;61064;51.654;5.476;2022-07-31T07:03:54;101660.47;;;19.69;71.72
72921;BME280;61064;51.654;5.476;2022-07-31T07:06:19;101666.66;;;19.74;71.59
72921;BME280;61064;51.654;5.476;2022-07-31T07:08:45;101647.81;;;19.72;71.73
72921;BME280;61064;51.654;5.476;2022-07-31T07:11:10;101649.53;;;19.76;71.70
72921;BME280;61064;51.654;5.476;2022-07-31T07:13:36;101648.53;;;19.80;71.70
72921;BME280;61064;51.654;5.476;2022-07-31T07:16:01;101649.41;;;19.82;71.66
72921;BME280;61064;51.654;5.476;2022-07-31T07:18:27;101643.91;;;19.88;71.51
72921;BME280;61064;51.654;5.476;2022-07-31T07:20:52;101655.38;;;20.00;71.57
72921;BME280;61064;51.654;5.476;2022-07-31T07:23:18;101655.28;;;20.04;71.54
72921;BME280;61064;51.654;5.476;2022-07-31T07:25:45;101646.31;;;20.02;71.42
72921;BME280;61064;51.654;5.476;2022-07-31T07:28:10;101647.13;;;20.07;71.46
72921;BME280;61064;51.654;5.476;2022-07-31T07:30:36;101650.59;;;20.14;71.34
72921;BME280;61064;51.654;5.476;2022-07-31T07:33:01;101648.81;;;20.13;71.38
72921;BME280;61064;51.654;5.476;2022-07-31T07:35:27;101639.81;;;20.12;71.44
72921;BME280;61064;51.654;5.476;2022-07-31T07:37:53;101647.75;;;20.21;71.39
72921;BME280;61064;51.654;5.476;2022-07-31T07:40:19;101641.31;;;20.27;71.37
72921;BME280;61064;51.654;5.476;2022-07-31T07:42:45;101636.75;;;20.29;71.27
72921;BME280;61064;51.654;5.476;2022-07-31T07:45:11;101632.19;;;20.34;71.20
72921;BME280;61064;51.654;5.476;2022-07-31T07:47:37;101619.47;;;20.39;71.12
72921;BME280;61064;51.654;5.476;2022-07-31T07:50:04;101626.47;;;20.49;71.25
72921;BME280;61064;51.654;5.476;2022-07-31T07:52:30;101611.00;;;20.56;71.05
72921;BME280;61064;51.654;5.476;2022-07-31T07:54:56;101633.16;;;20.73;71.06
72921;BME280;61064;51.654;5.476;2022-07-31T07:57:22;101625.59;;;20.86;70.86
72921;BME280;61064;51.654;5.476;2022-07-31T07:59:48;101620.97;;;20.91;70.74
72921;BME280;61064;51.654;5.476;2022-07-31T08:02:14;101632.44;;;21.02;70.47
72921;BME280;61064;51.654;5.476;2022-07-31T08:04:40;101621.59;;;21.03;70.26
72921;BME280;61064;51.654;5.476;2022-07-31T08:07:05;101626.81;;;21.11;70.24
72921;BME280;61064;51.654;5.476;2022-07-31T08:09:32;101629.41;;;21.17;70.16
72921;BME280;61064;51.654;5.476;2022-07-31T08:11:58;101618.50;;;21.20;70.15
72921;BME280;61064;51.654;5.476;2022-07-31T08:14:24;101614.72;;;21.27;69.96
72921;BME280;61064;51.654;5.476;2022-07-31T08:16:50;101623.47;;;21.37;69.95
72921;BME280;61064;51.654;5.476;2022-07-31T08:19:15;101621.47;;;21.45;69.67
72921;BME280;61064;51.654;5.476;2022-07-31T08:21:41;101616.84;;;21.48;69.49
72921;BME280;61064;51.654;5.476;2022-07-31T08:24:06;101624.72;;;21.57;69.38
72921;BME280;61064;51.654;5.476;2022-07-31T08:26:32;101618.31;;;21.62;69.48
72921;BME280;61064;51.654;5.476;2022-07-31T08:29:16;101626.09;;;21.74;69.16
72921;BME280;61064;51.654;5.476;2022-07-31T08:31:42;101620.44;;;21.83;69.04
72921;BME280;61064;51.654;5.476;2022-07-31T08:34:08;101608.50;;;21.90;68.63
72921;BME280;61064;51.654;5.476;2022-07-31T08:36:34;101598.53;;;21.90;68.71
72921;BME280;61064;51.654;5.476;2022-07-31T08:39:00;101603.88;;;21.95;68.81
72921;BME280;61064;51.654;5.476;2022-07-31T08:41:25;101613.59;;;22.02;68.34
72921;BME280;61064;51.654;5.476;2022-07-31T08:43:51;101620.59;;;22.11;68.14
72921;BME280;61064;51.654;5.476;2022-07-31T08:46:16;101623.44;;;22.06;68.13
72921;BME280;61064;51.654;5.476;2022-07-31T08:48:42;101620.81;;;22.02;68.24
72921;BME280;61064;51.654;5.476;2022-07-31T08:51:12;101615.31;;;22.06;68.45
72921;BME280;61064;51.654;5.476;2022-07-31T08:53:38;101608.09;;;22.05;68.53
72921;BME280;61064;51.654;5.476;2022-07-31T08:56:07;101622.28;;;22.13;68.21
72921;BME280;61064;51.654;5.476;2022-07-31T08:58:33;101624.00;;;22.17;68.10
72921;BME280;61064;51.654;5.476;2022-07-31T09:00:58;101621.31;;;22.17;68.08
72921;BME280;61064;51.654;5.476;2022-07-31T09:03:24;101626.63;;;22.20;68.22
72921;BME280;61064;51.654;5.476;2022-07-31T09:05:49;101625.75;;;22.18;68.06
72921;BME280;61064;51.654;5.476;2022-07-31T09:08:16;101622.97;;;22.21;68.18
72921;BME280;61064;51.654;5.476;2022-07-31T09:10:41;101621.13;;;22.23;67.86
72921;BME280;61064;51.654;5.476;2022-07-31T09:13:15;101614.81;;;22.23;67.83
72921;BME280;61064;51.654;5.476;2022-07-31T09:15:42;101610.13;;;22.28;67.96
72921;BME280;61064;51.654;5.476;2022-07-31T09:18:34;101615.50;;;22.29;67.76
72921;BME280;61064;51.654;5.476;2022-07-31T09:21:02;101594.00;;;22.23;67.79
72921;BME280;61064;51.654;5.476;2022-07-31T09:23:28;101613.78;;;22.27;67.87
72921;BME280;61064;51.654;5.476;2022-07-31T09:28:34;101610.38;;;22.19;68.34
72921;BME280;61064;51.654;5.476;2022-07-31T09:31:00;101613.84;;;22.24;68.74
72921;BME280;61064;51.654;5.476;2022-07-31T09:33:27;101619.94;;;22.32;68.70
72921;BME280;61064;51.654;5.476;2022-07-31T09:35:53;101608.22;;;22.31;68.29
72921;BME280;61064;51.654;5.476;2022-07-31T09:38:19;101618.91;;;22.36;68.61
72921;BME280;61064;51.654;5.476;2022-07-31T09:40:45;101606.25;;;22.36;68.81
72921;BME280;61064;51.654;5.476;2022-07-31T09:43:15;101601.69;;;22.38;68.86
72921;BME280;61064;51.654;5.476;2022-07-31T09:45:43;101614.13;;;22.46;68.83
72921;BME280;61064;51.654;5.476;2022-07-31T09:48:09;101615.75;;;22.51;68.62
72921;BME280;61064;51.654;5.476;2022-07-31T09:50:38;101609.13;;;22.61;68.35
72921;BME280;61064;51.654;5.476;2022-07-31T09:53:03;101601.88;;;22.62;68.40
72921;BME280;61064;51.654;5.476;2022-07-31T09:55:31;101608.69;;;22.75;68.36
72921;BME280;61064;51.654;5.476;2022-07-31T09:57:58;101603.97;;;22.82;68.41
72921;BME280;61064;51.654;5.476;2022-07-31T10:00:25;101599.31;;;22.85;68.09
72921;BME280;61064;51.654;5.476;2022-07-31T10:02:53;101597.22;;;22.95;67.64
72921;BME280;61064;51.654;5.476;2022-07-31T10:05:21;101606.97;;;23.00;67.41
72921;BME280;61064;51.654;5.476;2022-07-31T10:07:47;101596.94;;;23.02;67.27
72921;BME280;61064;51.654;5.476;2022-07-31T10:10:13;101596.91;;;23.04;67.17
72921;BME280;61064;51.654;5.476;2022-07-31T10:12:41;101604.81;;;23.11;67.03
72921;BME280;61064;51.654;5.476;2022-07-31T10:15:11;101595.81;;;23.09;66.82
72921;BME280;61064;51.654;5.476;2022-07-31T10:17:40;101610.97;;;23.16;66.58
72921;BME280;61064;51.654;5.476;2022-07-31T10:20:08;101606.34;;;23.18;66.79
72921;BME280;61064;51.654;5.476;2022-07-31T10:22:41;101602.53;;;23.24;66.80
72921;BME280;61064;51.654;5.476;2022-07-31T10:25:08;101596.97;;;23.29;66.43
72921;BME280;61064;51.654;5.476;2022-07-31T10:27:38;101595.03;;;23.32;66.06
72921;BME280;61064;51.654;5.476;2022-07-31T10:30:08;101587.66;;;23.36;66.39
72921;BME280;61064;51.654;5.476;2022-07-31T10:32:35;101586.56;;;23.41;66.00
72921;BME280;61064;51.654;5.476;2022-07-31T10:35:03;101583.34;;;23.56;65.81
72921;BME280;61064;51.654;5.476;2022-07-31T10:37:35;101574.03;;;23.63;65.80
72921;BME280;61064;51.654;5.476;2022-07-31T10:40:25;101589.72;;;23.80;65.66
72921;BME280;61064;51.654;5.476;2022-07-31T10:45:48;101566.31;;;24.01;65.12
72921;BME280;61064;51.654;5.476;2022-07-31T10:48:13;101568.72;;;24.09;64.74
72921;BME280;61064;51.654;5.476;2022-07-31T10:50:39;101581.00;;;24.20;64.75
72921;BME280;61064;51.654;5.476;2022-07-31T10:53:22;101560.19;;;24.19;64.32
72921;BME280;61064;51.654;5.476;2022-07-31T10:56:01;101566.31;;;24.24;64.08
72921;BME280;61064;51.654;5.476;2022-07-31T10:58:28;101572.75;;;24.23;64.09
72921;BME280;61064;51.654;5.476;2022-07-31T11:01:07;101569.13;;;24.23;63.59
72921;BME280;61064;51.654;5.476;2022-07-31T11:03:44;101573.69;;;24.22;63.63
72921;BME280;61064;51.654;5.476;2022-07-31T11:06:14;101563.78;;;24.20;63.81
72921;BME280;61064;51.654;5.476;2022-07-31T11:11:11;101556.47;;;24.22;63.92
72921;BME280;61064;51.654;5.476;2022-07-31T11:13:50;101540.41;;;24.14;63.78
72921;BME280;61064;51.654;5.476;2022-07-31T11:16:17;101549.72;;;24.32;63.66
72921;BME280;61064;51.654;5.476;2022-07-31T11:18:43;101538.75;;;24.35;63.75
72921;BME280;61064;51.654;5.476;2022-07-31T11:21:11;101550.88;;;24.48;63.17
72921;BME280;61064;51.654;5.476;2022-07-31T11:23:38;101541.63;;;24.52;63.34
72921;BME280;61064;51.654;5.476;2022-07-31T11:26:05;101541.28;;;24.61;63.38
72921;BME280;61064;51.654;5.476;2022-07-31T11:28:32;101534.91;;;24.62;62.64
72921;BME280;61064;51.654;5.476;2022-07-31T11:31:00;101539.22;;;24.68;62.79
72921;BME280;61064;51.654;5.476;2022-07-31T11:38:31;101536.97;;;24.77;62.73
72921;BME280;61064;51.654;5.476;2022-07-31T11:40:57;101536.94;;;24.79;62.64
72921;BME280;61064;51.654;5.476;2022-07-31T11:43:22;101530.59;;;24.78;61.99
72921;BME280;61064;51.654;5.476;2022-07-31T11:45:49;101537.53;;;24.85;61.82
72921;BME280;61064;51.654;5.476;2022-07-31T11:48:16;101529.38;;;24.85;61.40
72921;BME280;61064;51.654;5.476;2022-07-31T11:50:43;101531.69;;;24.96;61.22
72921;BME280;61064;51.654;5.476;2022-07-31T11:53:10;101516.84;;;25.03;61.32
72921;BME280;61064;51.654;5.476;2022-07-31T11:58:15;101510.47;;;25.24;60.73
72921;BME280;61064;51.654;5.476;2022-07-31T12:00:48;101513.59;;;25.36;60.61
72921;BME280;61064;51.654;5.476;2022-07-31T12:03:15;101523.97;;;25.48;60.36
72921;BME280;61064;51.654;5.476;2022-07-31T12:05:43;101525.63;;;25.52;60.09
72921;BME280;61064;51.654;5.476;2022-07-31T12:08:09;101517.50;;;25.50;60.00
72921;BME280;61064;51.654;5.476;2022-07-31T12:10:36;101512.00;;;25.52;60.02
72921;BME280;61064;51.654;5.476;2022-07-31T12:13:02;101517.34;;;25.53;59.88
72921;BME280;61064;51.654;5.476;2022-07-31T12:15:28;101533.19;;;25.65;60.07
72921;BME280;61064;51.654;5.476;2022-07-31T12:18:01;101532.25;;;25.66;59.87
72921;BME280;61064;51.654;5.476;2022-07-31T12:20:28;101517.00;;;25.62;59.41
72921;BME280;61064;51.654;5.476;2022-07-31T12:23:00;101524.91;;;25.69;59.77
72921;BME280;61064;51.654;5.476;2022-07-31T12:25:26;101510.38;;;25.68;59.50
72921;BME280;61064;51.654;5.476;2022-07-31T12:27:52;101519.03;;;25.78;59.27
72921;BME280;61064;51.654;5.476;2022-07-31T12:30:18;101517.13;;;25.80;58.93
72921;BME280;61064;51.654;5.476;2022-07-31T12:32:47;101514.78;;;25.71;58.71
72921;BME280;61064;51.654;5.476;2022-07-31T12:35:12;101513.16;;;25.66;58.96
72921;BME280;61064;51.654;5.476;2022-07-31T12:37:47;101498.81;;;25.63;59.08
72921;BME280;61064;51.654;5.476;2022-07-31T12:40:39;101506.22;;;25.80;59.23
72921;BME280;61064;51.654;5.476;2022-07-31T12:43:05;101493.63;;;25.96;59.07
72921;BME280;61064;51.654;5.476;2022-07-31T12:45:36;101510.34;;;26.27;58.66
72921;BME280;61064;51.654;5.476;2022-07-31T12:48:03;101494.44;;;26.54;58.25
72921;BME280;61064;51.654;5.476;2022-07-31T12:50:30;101499.41;;;26.82;57.03
72921;BME280;61064;51.654;5.476;2022-07-31T12:52:59;101493.53;;;26.91;56.66
72921;BME280;61064;51.654;5.476;2022-07-31T12:55:26;101478.56;;;26.98;56.40
72921;BME280;61064;51.654;5.476;2022-07-31T12:57:53;101476.59;;;27.02;56.25
72921;BME280;61064;51.654;5.476;2022-07-31T13:00:20;101492.88;;;27.03;55.96
72921;BME280;61064;51.654;5.476;2022-07-31T13:02:46;101488.13;;;26.89;55.87
72921;BME280;61064;51.654;5.476;2022-07-31T13:05:12;101493.66;;;26.88;56.14
72921;BME280;61064;51.654;5.476;2022-07-31T13:07:37;101495.66;;;26.84;56.00
72921;BME280;61064;51.654;5.476;2022-07-31T13:10:03;101488.91;;;26.74;55.84
72921;BME280;61064;51.654;5.476;2022-07-31T13:12:28;101493.78;;;26.68;56.06
72921;BME280;61064;51.654;5.476;2022-07-31T13:14:54;101486.72;;;26.64;55.97